createdAt,value
2023-05-15T00:00:44.606Z,14.59
2023-05-15T00:03:12.618Z,14.57
2023-05-15T00:05:39.833Z,14.57
2023-05-15T00:08:06.408Z,14.52
2023-05-15T00:10:33.008Z,14.49
2023-05-15T00:12:59.596Z,14.45
2023-05-15T00:15:26.373Z,14.43
2023-05-15T00:17:53.033Z,14.40
2023-05-15T00:20:19.617Z,14.34
2023-05-15T00:22:46.449Z,14.31
2023-05-15T00:25:12.989Z,14.25
2023-05-15T00:27:39.694Z,14.20
2023-05-15T00:30:08.898Z,14.13
2023-05-15T00:32:35.732Z,14.04
2023-05-15T00:35:02.604Z,13.94
2023-05-15T00:37:34.961Z,13.83
2023-05-15T00:40:04.748Z,13.73
2023-05-15T00:42:34.775Z,13.64
2023-05-15T00:45:02.611Z,13.54
2023-05-15T00:47:33.775Z,13.45
2023-05-15T00:50:00.430Z,13.36
2023-05-15T00:52:27.630Z,13.30
2023-05-15T00:54:54.261Z,13.23
2023-05-15T00:57:21.374Z,13.17
2023-05-15T00:59:49.665Z,13.11
2023-05-15T01:02:18.633Z,13.05
2023-05-15T01:04:46.465Z,12.99
2023-05-15T01:07:14.344Z,12.94
2023-05-15T01:09:44.624Z,12.88
2023-05-15T01:12:14.626Z,12.83
2023-05-15T01:14:41.169Z,12.77
2023-05-15T01:17:07.906Z,12.71
2023-05-15T01:19:36.065Z,12.66
2023-05-15T01:22:11.898Z,12.58
2023-05-15T01:24:59.452Z,12.51
2023-05-15T01:27:44.483Z,12.45
2023-05-15T01:30:26.979Z,12.39
2023-05-15T01:33:37.987Z,12.34
2023-05-15T01:36:15.636Z,12.29
2023-05-15T01:38:53.154Z,12.25
2023-05-15T01:41:27.372Z,12.22
2023-05-15T01:44:18.446Z,12.15
2023-05-15T01:46:49.591Z,12.11
2023-05-15T01:49:18.880Z,12.07
2023-05-15T01:51:56.972Z,12.04
2023-05-15T01:54:24.393Z,11.98
2023-05-15T01:56:52.275Z,11.95
2023-05-15T01:59:21.788Z,11.91
2023-05-15T02:01:50.318Z,11.87
2023-05-15T02:04:19.763Z,11.82
2023-05-15T02:06:47.428Z,11.77
2023-05-15T02:09:14.966Z,11.73
2023-05-15T02:11:42.188Z,11.72
2023-05-15T02:14:10.858Z,11.66
2023-05-15T02:16:37.506Z,11.61
2023-05-15T02:19:04.189Z,11.58
2023-05-15T02:21:30.766Z,11.52
2023-05-15T02:23:57.280Z,11.49
2023-05-15T02:26:35.711Z,11.45
2023-05-15T02:29:18.422Z,11.40
2023-05-15T02:32:03.544Z,11.38
2023-05-15T02:34:42.447Z,11.34
2023-05-15T02:37:14.528Z,11.29
2023-05-15T02:39:43.882Z,11.24
2023-05-15T02:42:14.923Z,11.21
2023-05-15T02:44:42.518Z,11.16
2023-05-15T02:47:09.901Z,11.10
2023-05-15T02:49:36.734Z,11.05
2023-05-15T02:52:03.390Z,11.00
2023-05-15T02:54:29.854Z,10.96
2023-05-15T02:56:56.575Z,10.92
2023-05-15T02:59:23.127Z,10.88
2023-05-15T03:01:49.689Z,10.83
2023-05-15T03:04:16.452Z,10.80
2023-05-15T03:06:43.016Z,10.76
2023-05-15T03:09:09.470Z,10.73
2023-05-15T03:11:35.983Z,10.71
2023-05-15T03:14:02.603Z,10.69
2023-05-15T03:16:29.242Z,10.67
2023-05-15T03:18:56.021Z,10.63
2023-05-15T03:21:22.608Z,10.60
2023-05-15T03:23:49.100Z,10.58
2023-05-15T03:26:16.619Z,10.57
2023-05-15T03:28:43.085Z,10.54
2023-05-15T03:31:09.692Z,10.50
2023-05-15T03:33:38.359Z,10.49
2023-05-15T03:36:05.608Z,10.47
2023-05-15T03:38:32.326Z,10.45
2023-05-15T03:41:00.586Z,10.44
2023-05-15T03:43:27.138Z,10.46
2023-05-15T03:45:53.637Z,10.49
2023-05-15T03:48:20.221Z,10.53
2023-05-15T03:50:47.022Z,10.59
2023-05-15T03:53:13.556Z,10.64
2023-05-15T03:55:40.118Z,10.69
2023-05-15T03:58:06.605Z,10.75
2023-05-15T04:00:33.580Z,10.79
2023-05-15T04:03:00.260Z,10.83
2023-05-15T04:05:27.013Z,10.88
2023-05-15T04:07:53.794Z,10.92
2023-05-15T04:10:20.387Z,10.95
2023-05-15T04:12:48.229Z,10.98
2023-05-15T04:15:21.947Z,11.00
2023-05-15T04:17:51.313Z,11.00
2023-05-15T04:20:22.340Z,11.00
2023-05-15T04:22:49.200Z,10.98
2023-05-15T04:25:20.209Z,10.96
2023-05-15T04:27:46.796Z,10.93
2023-05-15T04:30:13.480Z,10.92
2023-05-15T04:32:40.809Z,10.91
2023-05-15T04:35:12.474Z,10.89
2023-05-15T04:37:40.202Z,10.89
2023-05-15T04:40:08.334Z,10.91
2023-05-15T04:42:37.754Z,10.91
2023-05-15T04:45:05.886Z,10.91
2023-05-15T04:47:32.505Z,10.90
2023-05-15T04:49:59.056Z,10.88
2023-05-15T04:52:25.841Z,10.85
2023-05-15T04:54:53.288Z,10.83
2023-05-15T04:57:19.789Z,10.81
2023-05-15T04:59:46.306Z,10.78
2023-05-15T05:02:13.338Z,10.78
2023-05-15T05:04:42.964Z,10.79
2023-05-15T05:07:09.481Z,10.84
2023-05-15T05:09:35.931Z,10.90
2023-05-15T05:12:02.420Z,10.95
2023-05-15T05:14:29.069Z,11.04
2023-05-15T05:16:55.918Z,11.14
2023-05-15T05:19:22.453Z,11.25
2023-05-15T05:21:49.030Z,11.35
2023-05-15T05:24:15.657Z,11.45
2023-05-15T05:26:45.270Z,11.57
2023-05-15T05:29:11.972Z,11.68
2023-05-15T05:31:38.622Z,11.77
2023-05-15T05:34:05.199Z,11.88
2023-05-15T05:36:31.689Z,11.95
2023-05-15T05:38:58.798Z,12.03
2023-05-15T05:41:25.880Z,12.12
2023-05-15T05:43:52.409Z,12.24
2023-05-15T05:46:19.281Z,12.35
2023-05-15T05:48:45.780Z,12.44
2023-05-15T05:51:12.339Z,12.57
2023-05-15T05:53:39.676Z,12.67
2023-05-15T05:56:06.885Z,12.85
2023-05-15T05:58:33.491Z,13.01
2023-05-15T06:01:00.986Z,13.09
2023-05-15T06:03:28.423Z,13.18
2023-05-15T06:05:55.384Z,13.29
2023-05-15T06:08:22.004Z,13.36
2023-05-15T06:10:48.981Z,13.39
2023-05-15T06:13:15.529Z,13.47
2023-05-15T06:15:42.285Z,13.53
2023-05-15T06:18:09.489Z,13.57
2023-05-15T06:20:36.009Z,13.65
2023-05-15T06:23:02.602Z,13.76
2023-05-15T06:25:29.243Z,13.87
2023-05-15T06:27:56.252Z,14.00
2023-05-15T06:30:23.035Z,14.09
2023-05-15T06:32:50.478Z,14.13
2023-05-15T06:35:18.545Z,14.12
2023-05-15T06:37:50.960Z,14.09
2023-05-15T06:40:18.159Z,14.00
2023-05-15T06:42:47.242Z,13.96
2023-05-15T06:45:14.085Z,13.94
2023-05-15T06:47:40.796Z,13.96
2023-05-15T06:50:07.800Z,14.01
2023-05-15T06:52:36.902Z,14.10
2023-05-15T06:55:03.577Z,14.24
2023-05-15T06:57:30.037Z,14.39
2023-05-15T06:59:56.553Z,14.53
2023-05-15T07:02:25.262Z,14.66
2023-05-15T07:04:51.877Z,14.76
2023-05-15T07:07:18.446Z,14.86
2023-05-15T07:09:50.576Z,14.98
2023-05-15T07:12:17.126Z,15.14
2023-05-15T07:14:43.627Z,15.29
2023-05-15T07:17:11.480Z,15.33
